sensor_id;sensor_type;location;lat;lon;timestamp;P1;durP1;ratioP1;P2;durP2;ratioP2
70667;SDS011;58242;51.250;-1.118;2023-03-31T00:01:23;6.10;;;3.72;;
70667;SDS011;58242;51.250;-1.118;2023-03-31T00:03:49;6.05;;;3.63;;
70667;SDS011;58242;51.250;-1.118;2023-03-31T00:06:14;8.20;;;3.95;;
70667;SDS011;58242;51.250;-1.118;2023-03-31T00:08:43;7.32;;;3.72;;
70667;SDS011;58242;51.250;-1.118;2023-03-31T00:11:09;8.18;;;4.18;;
70667;SDS011;58242;51.250;-1.118;2023-03-31T00:13:36;10.90;;;4.25;;
70667;SDS011;58242;51.250;-1.118;2023-03-31T00:16:03;6.18;;;3.75;;
70667;SDS011;58242;51.250;-1.118;2023-03-31T00:21:06;6.80;;;3.65;;
70667;SDS011;58242;51.250;-1.118;2023-03-31T00:23:48;7.93;;;4.50;;
70667;SDS011;58242;51.250;-1.118;2023-03-31T00:26:20;13.50;;;5.05;;
70667;SDS011;58242;51.250;-1.118;2023-03-31T00:28:47;11.73;;;4.50;;
70667;SDS011;58242;51.250;-1.118;2023-03-31T00:31:12;9.32;;;3.60;;
70667;SDS011;58242;51.250;-1.118;2023-03-31T00:33:38;10.93;;;5.28;;
70667;SDS011;58242;51.250;-1.118;2023-03-31T00:36:03;9.68;;;4.55;;
70667;SDS011;58242;51.250;-1.118;2023-03-31T00:38:29;6.53;;;3.88;;
70667;SDS011;58242;51.250;-1.118;2023-03-31T00:40:55;6.75;;;3.70;;
70667;SDS011;58242;51.250;-1.118;2023-03-31T00:46:05;5.88;;;3.75;;
70667;SDS011;58242;51.250;-1.118;2023-03-31T00:48:39;7.10;;;3.63;;
70667;SDS011;58242;51.250;-1.118;2023-03-31T00:51:12;7.03;;;3.65;;
70667;SDS011;58242;51.250;-1.118;2023-03-31T00:53:38;5.95;;;3.42;;
70667;SDS011;58242;51.250;-1.118;2023-03-31T00:56:06;7.65;;;3.80;;
70667;SDS011;58242;51.250;-1.118;2023-03-31T00:58:35;5.57;;;4.15;;
70667;SDS011;58242;51.250;-1.118;2023-03-31T01:01:08;8.45;;;4.93;;
70667;SDS011;58242;51.250;-1.118;2023-03-31T01:03:38;8.80;;;3.65;;
70667;SDS011;58242;51.250;-1.118;2023-03-31T01:06:04;5.28;;;3.28;;
70667;SDS011;58242;51.250;-1.118;2023-03-31T01:08:34;6.93;;;3.20;;
70667;SDS011;58242;51.250;-1.118;2023-03-31T01:11:04;7.10;;;3.70;;
70667;SDS011;58242;51.250;-1.118;2023-03-31T01:13:34;5.72;;;2.97;;
70667;SDS011;58242;51.250;-1.118;2023-03-31T01:16:02;7.45;;;3.80;;
70667;SDS011;58242;51.250;-1.118;2023-03-31T01:18:27;4.85;;;3.70;;
70667;SDS011;58242;51.250;-1.118;2023-03-31T01:24:03;8.02;;;3.47;;
70667;SDS011;58242;51.250;-1.118;2023-03-31T01:26:47;6.25;;;3.47;;
70667;SDS011;58242;51.250;-1.118;2023-03-31T01:45:40;13.52;;;6.03;;
70667;SDS011;58242;51.250;-1.118;2023-03-31T01:48:56;16.50;;;6.18;;
70667;SDS011;58242;51.250;-1.118;2023-03-31T01:53:49;10.95;;;5.20;;
70667;SDS011;58242;51.250;-1.118;2023-03-31T01:56:21;13.63;;;6.35;;
70667;SDS011;58242;51.250;-1.118;2023-03-31T01:58:59;10.13;;;5.85;;
70667;SDS011;58242;51.250;-1.118;2023-03-31T02:01:58;15.02;;;5.53;;
70667;SDS011;58242;51.250;-1.118;2023-03-31T02:04:33;15.98;;;5.90;;
70667;SDS011;58242;51.250;-1.118;2023-03-31T02:07:04;14.07;;;5.80;;
70667;SDS011;58242;51.250;-1.118;2023-03-31T02:09:36;13.80;;;6.05;;
70667;SDS011;58242;51.250;-1.118;2023-03-31T02:12:04;28.90;;;7.70;;
70667;SDS011;58242;51.250;-1.118;2023-03-31T02:14:34;23.65;;;7.32;;
70667;SDS011;58242;51.250;-1.118;2023-03-31T02:17:01;25.25;;;7.88;;
70667;SDS011;58242;51.250;-1.118;2023-03-31T02:19:34;24.92;;;8.57;;
70667;SDS011;58242;51.250;-1.118;2023-03-31T02:22:05;22.15;;;8.57;;
70667;SDS011;58242;51.250;-1.118;2023-03-31T02:24:32;16.75;;;7.60;;
70667;SDS011;58242;51.250;-1.118;2023-03-31T02:27:11;19.98;;;7.85;;
70667;SDS011;58242;51.250;-1.118;2023-03-31T02:30:11;21.75;;;7.82;;
70667;SDS011;58242;51.250;-1.118;2023-03-31T02:32:39;26.42;;;8.60;;
70667;SDS011;58242;51.250;-1.118;2023-03-31T02:35:07;34.75;;;9.60;;
70667;SDS011;58242;51.250;-1.118;2023-03-31T02:37:35;24.77;;;8.52;;
70667;SDS011;58242;51.250;-1.118;2023-03-31T02:40:04;25.58;;;8.50;;
70667;SDS011;58242;51.250;-1.118;2023-03-31T02:42:34;27.30;;;8.73;;
70667;SDS011;58242;51.250;-1.118;2023-03-31T02:45:02;17.85;;;7.45;;
70667;SDS011;58242;51.250;-1.118;2023-03-31T02:47:29;18.55;;;8.15;;
70667;SDS011;58242;51.250;-1.118;2023-03-31T02:49:55;19.95;;;7.20;;
70667;SDS011;58242;51.250;-1.118;2023-03-31T02:52:44;23.58;;;8.80;;
70667;SDS011;58242;51.250;-1.118;2023-03-31T03:06:50;32.40;;;8.95;;
70667;SDS011;58242;51.250;-1.118;2023-03-31T03:09:22;26.58;;;8.20;;
70667;SDS011;58242;51.250;-1.118;2023-03-31T03:15:35;23.90;;;8.27;;
70667;SDS011;58242;51.250;-1.118;2023-03-31T03:18:04;24.50;;;8.20;;
70667;SDS011;58242;51.250;-1.118;2023-03-31T03:20:30;38.40;;;10.65;;
70667;SDS011;58242;51.250;-1.118;2023-03-31T03:22:58;25.15;;;8.77;;
70667;SDS011;58242;51.250;-1.118;2023-03-31T03:25:23;22.70;;;8.50;;
70667;SDS011;58242;51.250;-1.118;2023-03-31T03:27:49;21.10;;;7.47;;
70667;SDS011;58242;51.250;-1.118;2023-03-31T03:30:18;25.40;;;8.90;;
70667;SDS011;58242;51.250;-1.118;2023-03-31T03:32:43;20.17;;;7.80;;
70667;SDS011;58242;51.250;-1.118;2023-03-31T03:35:09;15.07;;;6.95;;
70667;SDS011;58242;51.250;-1.118;2023-03-31T03:37:35;20.05;;;6.75;;
70667;SDS011;58242;51.250;-1.118;2023-03-31T03:40:00;21.40;;;7.40;;
70667;SDS011;58242;51.250;-1.118;2023-03-31T03:42:26;27.38;;;8.15;;
70667;SDS011;58242;51.250;-1.118;2023-03-31T03:44:51;23.30;;;7.47;;
70667;SDS011;58242;51.250;-1.118;2023-03-31T03:47:16;13.45;;;5.47;;
70667;SDS011;58242;51.250;-1.118;2023-03-31T03:49:42;24.33;;;7.13;;
70667;SDS011;58242;51.250;-1.118;2023-03-31T03:52:07;14.15;;;6.18;;
70667;SDS011;58242;51.250;-1.118;2023-03-31T03:54:32;10.82;;;5.28;;
70667;SDS011;58242;51.250;-1.118;2023-03-31T03:56:58;21.60;;;7.75;;
70667;SDS011;58242;51.250;-1.118;2023-03-31T03:59:23;17.08;;;6.50;;
70667;SDS011;58242;51.250;-1.118;2023-03-31T04:01:48;19.13;;;6.55;;
70667;SDS011;58242;51.250;-1.118;2023-03-31T04:04:14;17.30;;;6.00;;
70667;SDS011;58242;51.250;-1.118;2023-03-31T04:06:40;17.90;;;6.57;;
70667;SDS011;58242;51.250;-1.118;2023-03-31T04:09:05;12.55;;;5.90;;
70667;SDS011;58242;51.250;-1.118;2023-03-31T04:11:31;11.02;;;5.57;;
70667;SDS011;58242;51.250;-1.118;2023-03-31T04:13:56;16.52;;;6.15;;
70667;SDS011;58242;51.250;-1.118;2023-03-31T04:16:22;10.80;;;5.38;;
70667;SDS011;58242;51.250;-1.118;2023-03-31T04:18:49;16.90;;;6.22;;
70667;SDS011;58242;51.250;-1.118;2023-03-31T04:21:21;14.07;;;5.57;;
70667;SDS011;58242;51.250;-1.118;2023-03-31T04:23:47;13.27;;;5.05;;
70667;SDS011;58242;51.250;-1.118;2023-03-31T04:26:22;15.00;;;5.60;;
70667;SDS011;58242;51.250;-1.118;2023-03-31T04:28:54;10.48;;;5.25;;
70667;SDS011;58242;51.250;-1.118;2023-03-31T04:31:22;12.67;;;5.53;;
70667;SDS011;58242;51.250;-1.118;2023-03-31T04:33:51;15.60;;;6.05;;
70667;SDS011;58242;51.250;-1.118;2023-03-31T04:36:17;16.65;;;5.53;;
70667;SDS011;58242;51.250;-1.118;2023-03-31T04:38:43;12.75;;;5.85;;
70667;SDS011;58242;51.250;-1.118;2023-03-31T04:41:11;14.10;;;5.95;;
70667;SDS011;58242;51.250;-1.118;2023-03-31T04:43:37;8.80;;;5.13;;
70667;SDS011;58242;51.250;-1.118;2023-03-31T04:46:02;8.70;;;4.28;;
70667;SDS011;58242;51.250;-1.118;2023-03-31T04:48:28;12.95;;;4.63;;
70667;SDS011;58242;51.250;-1.118;2023-03-31T04:50:53;9.25;;;4.80;;
70667;SDS011;58242;51.250;-1.118;2023-03-31T04:53:18;9.13;;;4.43;;
70667;SDS011;58242;51.250;-1.118;2023-03-31T04:55:43;11.18;;;5.32;;
70667;SDS011;58242;51.250;-1.118;2023-03-31T04:58:09;12.65;;;5.20;;
70667;SDS011;58242;51.250;-1.118;2023-03-31T05:00:35;10.38;;;4.90;;
70667;SDS011;58242;51.250;-1.118;2023-03-31T05:03:00;13.32;;;4.97;;
70667;SDS011;58242;51.250;-1.118;2023-03-31T05:05:25;9.52;;;4.57;;
70667;SDS011;58242;51.250;-1.118;2023-03-31T05:07:51;12.55;;;5.22;;
70667;SDS011;58242;51.250;-1.118;2023-03-31T05:10:16;9.73;;;4.82;;
70667;SDS011;58242;51.250;-1.118;2023-03-31T05:12:42;5.50;;;4.13;;
70667;SDS011;58242;51.250;-1.118;2023-03-31T05:15:07;12.27;;;5.00;;
70667;SDS011;58242;51.250;-1.118;2023-03-31T05:17:34;6.60;;;4.00;;
70667;SDS011;58242;51.250;-1.118;2023-03-31T05:20:00;9.40;;;4.30;;
70667;SDS011;58242;51.250;-1.118;2023-03-31T05:22:26;6.63;;;4.20;;
70667;SDS011;58242;51.250;-1.118;2023-03-31T05:24:51;14.15;;;5.38;;
70667;SDS011;58242;51.250;-1.118;2023-03-31T05:27:17;11.45;;;5.50;;
70667;SDS011;58242;51.250;-1.118;2023-03-31T05:29:44;8.30;;;4.03;;
70667;SDS011;58242;51.250;-1.118;2023-03-31T05:32:10;10.60;;;5.15;;
70667;SDS011;58242;51.250;-1.118;2023-03-31T05:34:35;10.07;;;5.38;;
70667;SDS011;58242;51.250;-1.118;2023-03-31T05:37:01;13.00;;;5.80;;
70667;SDS011;58242;51.250;-1.118;2023-03-31T05:39:26;12.38;;;5.85;;
70667;SDS011;58242;51.250;-1.118;2023-03-31T05:41:56;12.45;;;4.82;;
70667;SDS011;58242;51.250;-1.118;2023-03-31T05:44:22;15.95;;;6.18;;
70667;SDS011;58242;51.250;-1.118;2023-03-31T05:46:47;8.73;;;4.65;;
70667;SDS011;58242;51.250;-1.118;2023-03-31T05:49:13;16.85;;;4.72;;
70667;SDS011;58242;51.250;-1.118;2023-03-31T05:51:40;12.48;;;5.75;;
70667;SDS011;58242;51.250;-1.118;2023-03-31T05:54:05;11.25;;;4.35;;
70667;SDS011;58242;51.250;-1.118;2023-03-31T05:56:30;8.95;;;4.43;;
70667;SDS011;58242;51.250;-1.118;2023-03-31T05:58:58;11.02;;;5.30;;
70667;SDS011;58242;51.250;-1.118;2023-03-31T06:01:24;9.97;;;5.13;;
70667;SDS011;58242;51.250;-1.118;2023-03-31T06:03:49;12.82;;;5.90;;
70667;SDS011;58242;51.250;-1.118;2023-03-31T06:06:15;17.52;;;6.63;;
70667;SDS011;58242;51.250;-1.118;2023-03-31T06:08:41;12.25;;;6.30;;
70667;SDS011;58242;51.250;-1.118;2023-03-31T06:11:08;10.70;;;5.40;;
70667;SDS011;58242;51.250;-1.118;2023-03-31T06:13:35;12.23;;;5.68;;
70667;SDS011;58242;51.250;-1.118;2023-03-31T06:16:02;12.38;;;6.20;;
70667;SDS011;58242;51.250;-1.118;2023-03-31T06:18:29;13.40;;;5.97;;
70667;SDS011;58242;51.250;-1.118;2023-03-31T06:20:55;12.65;;;5.57;;
70667;SDS011;58242;51.250;-1.118;2023-03-31T06:23:21;14.10;;;5.97;;
70667;SDS011;58242;51.250;-1.118;2023-03-31T06:25:46;8.82;;;5.60;;
70667;SDS011;58242;51.250;-1.118;2023-03-31T06:28:12;12.20;;;5.22;;
70667;SDS011;58242;51.250;-1.118;2023-03-31T06:30:38;13.25;;;6.57;;
70667;SDS011;58242;51.250;-1.118;2023-03-31T06:33:04;16.92;;;6.53;;
70667;SDS011;58242;51.250;-1.118;2023-03-31T06:35:29;9.50;;;5.53;;
70667;SDS011;58242;51.250;-1.118;2023-03-31T06:37:55;15.25;;;6.53;;
70667;SDS011;58242;51.250;-1.118;2023-03-31T06:40:20;17.02;;;6.50;;
70667;SDS011;58242;51.250;-1.118;2023-03-31T06:42:45;17.45;;;6.32;;
70667;SDS011;58242;51.250;-1.118;2023-03-31T06:45:11;22.85;;;6.35;;
70667;SDS011;58242;51.250;-1.118;2023-03-31T06:47:36;14.52;;;5.40;;
70667;SDS011;58242;51.250;-1.118;2023-03-31T06:50:03;14.27;;;6.47;;
70667;SDS011;58242;51.250;-1.118;2023-03-31T06:52:30;13.45;;;5.00;;
70667;SDS011;58242;51.250;-1.118;2023-03-31T06:54:56;17.83;;;6.70;;
70667;SDS011;58242;51.250;-1.118;2023-03-31T06:57:21;15.65;;;6.35;;
70667;SDS011;58242;51.250;-1.118;2023-03-31T06:59:47;14.93;;;6.35;;
70667;SDS011;58242;51.250;-1.118;2023-03-31T07:02:12;23.70;;;6.72;;
70667;SDS011;58242;51.250;-1.118;2023-03-31T07:04:37;15.80;;;5.50;;
70667;SDS011;58242;51.250;-1.118;2023-03-31T07:07:03;14.63;;;5.75;;
70667;SDS011;58242;51.250;-1.118;2023-03-31T07:09:28;17.48;;;6.70;;
70667;SDS011;58242;51.250;-1.118;2023-03-31T07:11:53;17.75;;;6.45;;
70667;SDS011;58242;51.250;-1.118;2023-03-31T07:14:18;13.27;;;6.13;;
70667;SDS011;58242;51.250;-1.118;2023-03-31T07:16:44;10.82;;;5.45;;
70667;SDS011;58242;51.250;-1.118;2023-03-31T07:19:09;23.08;;;6.38;;
70667;SDS011;58242;51.250;-1.118;2023-03-31T07:21:35;13.70;;;5.38;;
70667;SDS011;58242;51.250;-1.118;2023-03-31T07:24:01;9.10;;;4.57;;
70667;SDS011;58242;51.250;-1.118;2023-03-31T07:26:27;17.88;;;6.25;;
70667;SDS011;58242;51.250;-1.118;2023-03-31T07:28:53;15.60;;;6.03;;
70667;SDS011;58242;51.250;-1.118;2023-03-31T07:31:20;13.25;;;5.28;;
70667;SDS011;58242;51.250;-1.118;2023-03-31T07:33:46;14.30;;;6.10;;
70667;SDS011;58242;51.250;-1.118;2023-03-31T07:36:11;12.38;;;6.15;;
70667;SDS011;58242;51.250;-1.118;2023-03-31T07:38:37;15.38;;;5.03;;
70667;SDS011;58242;51.250;-1.118;2023-03-31T07:41:02;13.05;;;6.15;;
70667;SDS011;58242;51.250;-1.118;2023-03-31T07:43:27;10.18;;;5.47;;
70667;SDS011;58242;51.250;-1.118;2023-03-31T07:45:53;9.93;;;4.60;;
70667;SDS011;58242;51.250;-1.118;2023-03-31T07:48:18;11.98;;;4.90;;
70667;SDS011;58242;51.250;-1.118;2023-03-31T07:50:43;10.07;;;4.70;;
70667;SDS011;58242;51.250;-1.118;2023-03-31T07:53:09;10.48;;;4.30;;
70667;SDS011;58242;51.250;-1.118;2023-03-31T07:55:34;10.93;;;5.35;;
70667;SDS011;58242;51.250;-1.118;2023-03-31T07:58:00;12.07;;;4.80;;
70667;SDS011;58242;51.250;-1.118;2023-03-31T08:00:25;9.77;;;4.20;;
70667;SDS011;58242;51.250;-1.118;2023-03-31T08:02:51;8.77;;;4.45;;
70667;SDS011;58242;51.250;-1.118;2023-03-31T08:05:17;13.27;;;4.97;;
70667;SDS011;58242;51.250;-1.118;2023-03-31T08:07:45;11.95;;;4.53;;
70667;SDS011;58242;51.250;-1.118;2023-03-31T08:10:13;8.00;;;4.75;;
70667;SDS011;58242;51.250;-1.118;2023-03-31T08:12:41;4.57;;;3.92;;
70667;SDS011;58242;51.250;-1.118;2023-03-31T08:15:07;7.90;;;4.30;;
70667;SDS011;58242;51.250;-1.118;2023-03-31T08:17:33;11.52;;;4.53;;
70667;SDS011;58242;51.250;-1.118;2023-03-31T08:19:58;9.43;;;4.78;;
70667;SDS011;58242;51.250;-1.118;2023-03-31T08:22:23;10.77;;;4.05;;
70667;SDS011;58242;51.250;-1.118;2023-03-31T08:24:48;8.10;;;3.92;;
70667;SDS011;58242;51.250;-1.118;2023-03-31T08:27:14;6.43;;;3.60;;
70667;SDS011;58242;51.250;-1.118;2023-03-31T08:29:39;11.75;;;4.53;;
70667;SDS011;58242;51.250;-1.118;2023-03-31T08:32:06;8.27;;;4.53;;
70667;SDS011;58242;51.250;-1.118;2023-03-31T08:34:31;8.00;;;3.65;;
70667;SDS011;58242;51.250;-1.118;2023-03-31T08:36:56;8.43;;;3.92;;
70667;SDS011;58242;51.250;-1.118;2023-03-31T08:39:22;10.63;;;4.63;;
70667;SDS011;58242;51.250;-1.118;2023-03-31T08:41:53;11.10;;;4.20;;
70667;SDS011;58242;51.250;-1.118;2023-03-31T08:44:35;6.00;;;4.20;;
70667;SDS011;58242;51.250;-1.118;2023-03-31T08:47:04;9.25;;;4.15;;
70667;SDS011;58242;51.250;-1.118;2023-03-31T08:49:39;5.40;;;3.00;;
70667;SDS011;58242;51.250;-1.118;2023-03-31T08:55:42;5.00;;;3.42;;
70667;SDS011;58242;51.250;-1.118;2023-03-31T09:00:53;5.75;;;3.58;;
70667;SDS011;58242;51.250;-1.118;2023-03-31T09:06:17;5.90;;;3.92;;
70667;SDS011;58242;51.250;-1.118;2023-03-31T09:08:48;5.78;;;3.88;;
70667;SDS011;58242;51.250;-1.118;2023-03-31T09:11:34;8.88;;;3.75;;
70667;SDS011;58242;51.250;-1.118;2023-03-31T09:14:11;4.60;;;3.25;;
70667;SDS011;58242;51.250;-1.118;2023-03-31T09:19:36;3.67;;;3.22;;
70667;SDS011;58242;51.250;-1.118;2023-03-31T09:22:05;6.15;;;3.47;;
70667;SDS011;58242;51.250;-1.118;2023-03-31T09:24:42;5.63;;;3.78;;
70667;SDS011;58242;51.250;-1.118;2023-03-31T09:27:30;4.65;;;3.20;;
70667;SDS011;58242;51.250;-1.118;2023-03-31T09:30:09;3.53;;;3.22;;
70667;SDS011;58242;51.250;-1.118;2023-03-31T09:32:39;4.03;;;3.50;;
70667;SDS011;58242;51.250;-1.118;2023-03-31T09:37:45;4.00;;;3.10;;
70667;SDS011;58242;51.250;-1.118;2023-03-31T09:40:14;4.30;;;3.50;;
70667;SDS011;58242;51.250;-1.118;2023-03-31T09:43:15;3.80;;;3.50;;
70667;SDS011;58242;51.250;-1.118;2023-03-31T09:45:43;4.32;;;2.97;;
70667;SDS011;58242;51.250;-1.118;2023-03-31T09:48:10;2.97;;;2.78;;
70667;SDS011;58242;51.250;-1.118;2023-03-31T09:50:47;3.88;;;3.20;;
70667;SDS011;58242;51.250;-1.118;2023-03-31T09:53:39;3.78;;;2.85;;
70667;SDS011;58242;51.250;-1.118;2023-03-31T09:56:10;6.28;;;3.30;;
70667;SDS011;58242;51.250;-1.118;2023-03-31T09:58:41;3.17;;;2.97;;
70667;SDS011;58242;51.250;-1.118;2023-03-31T10:01:09;3.20;;;3.00;;
70667;SDS011;58242;51.250;-1.118;2023-03-31T10:03:49;3.40;;;3.10;;
70667;SDS011;58242;51.250;-1.118;2023-03-31T10:06:16;2.85;;;2.65;;
70667;SDS011;58242;51.250;-1.118;2023-03-31T10:09:03;3.33;;;2.97;;
70667;SDS011;58242;51.250;-1.118;2023-03-31T10:11:29;4.25;;;3.10;;
70667;SDS011;58242;51.250;-1.118;2023-03-31T10:17:13;2.70;;;2.50;;
70667;SDS011;58242;51.250;-1.118;2023-03-31T10:19:45;3.42;;;2.70;;
70667;SDS011;58242;51.250;-1.118;2023-03-31T10:24:47;2.90;;;2.72;;
70667;SDS011;58242;51.250;-1.118;2023-03-31T10:29:56;2.55;;;2.45;;
70667;SDS011;58242;51.250;-1.118;2023-03-31T10:32:26;3.00;;;2.80;;
70667;SDS011;58242;51.250;-1.118;2023-03-31T10:34:57;3.15;;;2.92;;
70667;SDS011;58242;51.250;-1.118;2023-03-31T10:37:28;2.97;;;2.78;;
70667;SDS011;58242;51.250;-1.118;2023-03-31T10:39:59;2.92;;;2.72;;
70667;SDS011;58242;51.250;-1.118;2023-03-31T10:42:30;3.40;;;3.20;;
70667;SDS011;58242;51.250;-1.118;2023-03-31T10:45:13;3.58;;;3.38;;
70667;SDS011;58242;51.250;-1.118;2023-03-31T10:47:51;3.97;;;3.63;;
70667;SDS011;58242;51.250;-1.118;2023-03-31T10:50:19;3.72;;;3.53;;
70667;SDS011;58242;51.250;-1.118;2023-03-31T10:52:59;4.15;;;3.95;;
70667;SDS011;58242;51.250;-1.118;2023-03-31T10:55:45;4.07;;;3.83;;
70667;SDS011;58242;51.250;-1.118;2023-03-31T10:58:36;3.95;;;3.75;;
70667;SDS011;58242;51.250;-1.118;2023-03-31T11:01:19;4.65;;;4.43;;
70667;SDS011;58242;51.250;-1.118;2023-03-31T11:03:52;3.85;;;3.65;;
70667;SDS011;58242;51.250;-1.118;2023-03-31T11:06:26;3.70;;;3.50;;
70667;SDS011;58242;51.250;-1.118;2023-03-31T11:24:00;2.67;;;2.47;;
70667;SDS011;58242;51.250;-1.118;2023-03-31T11:34:21;2.80;;;2.70;;
70667;SDS011;58242;51.250;-1.118;2023-03-31T11:37:13;3.50;;;3.30;;
70667;SDS011;58242;51.250;-1.118;2023-03-31T11:40:29;2.83;;;2.72;;
70667;SDS011;58242;51.250;-1.118;2023-03-31T11:45:36;3.25;;;3.15;;
70667;SDS011;58242;51.250;-1.118;2023-03-31T11:48:09;3.17;;;2.97;;
70667;SDS011;58242;51.250;-1.118;2023-03-31T11:50:41;3.83;;;3.53;;
70667;SDS011;58242;51.250;-1.118;2023-03-31T11:55:45;4.13;;;3.13;;
70667;SDS011;58242;51.250;-1.118;2023-03-31T11:58:20;3.22;;;3.03;;
70667;SDS011;58242;51.250;-1.118;2023-03-31T12:03:56;3.67;;;3.47;;
70667;SDS011;58242;51.250;-1.118;2023-03-31T12:06:28;3.13;;;3.00;;
70667;SDS011;58242;51.250;-1.118;2023-03-31T12:12:08;2.80;;;2.70;;
70667;SDS011;58242;51.250;-1.118;2023-03-31T12:14:39;2.85;;;2.72;;
70667;SDS011;58242;51.250;-1.118;2023-03-31T12:17:11;2.70;;;2.60;;
70667;SDS011;58242;51.250;-1.118;2023-03-31T12:24:52;2.80;;;2.70;;
70667;SDS011;58242;51.250;-1.118;2023-03-31T12:32:46;2.60;;;2.50;;
70667;SDS011;58242;51.250;-1.118;2023-03-31T12:35:19;2.78;;;2.67;;
70667;SDS011;58242;51.250;-1.118;2023-03-31T12:37:59;3.00;;;2.90;;
70667;SDS011;58242;51.250;-1.118;2023-03-31T12:50:11;2.85;;;2.75;;
70667;SDS011;58242;51.250;-1.118;2023-03-31T12:53:30;2.78;;;2.60;;
70667;SDS011;58242;51.250;-1.118;2023-03-31T12:55:48;2.55;;;2.45;;
70667;SDS011;58242;51.250;-1.118;2023-03-31T13:05:58;2.20;;;2.10;;
70667;SDS011;58242;51.250;-1.118;2023-03-31T13:08:47;2.42;;;2.33;;
70667;SDS011;58242;51.250;-1.118;2023-03-31T13:11:14;2.30;;;2.20;;
70667;SDS011;58242;51.250;-1.118;2023-03-31T13:13:43;2.38;;;2.20;;
70667;SDS011;58242;51.250;-1.118;2023-03-31T13:16:16;3.42;;;2.30;;
70667;SDS011;58242;51.250;-1.118;2023-03-31T13:18:48;2.38;;;2.30;;
70667;SDS011;58242;51.250;-1.118;2023-03-31T13:21:15;2.30;;;2.20;;
70667;SDS011;58242;51.250;-1.118;2023-03-31T13:23:42;2.15;;;2.05;;
70667;SDS011;58242;51.250;-1.118;2023-03-31T13:37:10;2.42;;;2.33;;
70667;SDS011;58242;51.250;-1.118;2023-03-31T13:39:44;3.15;;;2.35;;
70667;SDS011;58242;51.250;-1.118;2023-03-31T13:48:25;2.20;;;2.10;;
70667;SDS011;58242;51.250;-1.118;2023-03-31T14:00:09;2.47;;;2.28;;
70667;SDS011;58242;51.250;-1.118;2023-03-31T14:06:01;2.55;;;2.45;;
70667;SDS011;58242;51.250;-1.118;2023-03-31T14:08:30;2.72;;;2.55;;
70667;SDS011;58242;51.250;-1.118;2023-03-31T14:13:41;2.38;;;2.17;;
70667;SDS011;58242;51.250;-1.118;2023-03-31T14:16:06;2.55;;;2.45;;
70667;SDS011;58242;51.250;-1.118;2023-03-31T14:18:33;2.00;;;2.00;;
70667;SDS011;58242;51.250;-1.118;2023-03-31T14:31:44;2.13;;;2.03;;
70667;SDS011;58242;51.250;-1.118;2023-03-31T14:37:14;2.47;;;2.38;;
70667;SDS011;58242;51.250;-1.118;2023-03-31T14:42:12;1.95;;;1.85;;
70667;SDS011;58242;51.250;-1.118;2023-03-31T14:44:40;2.58;;;2.38;;
70667;SDS011;58242;51.250;-1.118;2023-03-31T14:47:13;2.25;;;2.15;;
70667;SDS011;58242;51.250;-1.118;2023-03-31T14:49:39;2.13;;;2.03;;
70667;SDS011;58242;51.250;-1.118;2023-03-31T14:52:18;2.22;;;2.13;;
70667;SDS011;58242;51.250;-1.118;2023-03-31T14:54:47;2.72;;;2.22;;
70667;SDS011;58242;51.250;-1.118;2023-03-31T14:57:14;2.90;;;1.88;;
70667;SDS011;58242;51.250;-1.118;2023-03-31T14:59:43;2.72;;;2.22;;
70667;SDS011;58242;51.250;-1.118;2023-03-31T15:02:12;3.30;;;2.20;;
70667;SDS011;58242;51.250;-1.118;2023-03-31T15:04:42;2.45;;;2.35;;
70667;SDS011;58242;51.250;-1.118;2023-03-31T15:07:10;3.80;;;2.25;;
70667;SDS011;58242;51.250;-1.118;2023-03-31T15:09:36;2.40;;;1.90;;
70667;SDS011;58242;51.250;-1.118;2023-03-31T15:12:03;3.30;;;2.28;;
70667;SDS011;58242;51.250;-1.118;2023-03-31T15:14:34;2.58;;;2.25;;
70667;SDS011;58242;51.250;-1.118;2023-03-31T15:17:23;3.85;;;2.10;;
70667;SDS011;58242;51.250;-1.118;2023-03-31T15:19:52;2.65;;;2.45;;
70667;SDS011;58242;51.250;-1.118;2023-03-31T15:22:20;3.28;;;2.40;;
70667;SDS011;58242;51.250;-1.118;2023-03-31T15:24:47;2.47;;;2.10;;
70667;SDS011;58242;51.250;-1.118;2023-03-31T15:27:18;4.30;;;2.42;;
70667;SDS011;58242;51.250;-1.118;2023-03-31T15:29:46;2.67;;;2.45;;
70667;SDS011;58242;51.250;-1.118;2023-03-31T15:32:19;5.07;;;1.95;;
70667;SDS011;58242;51.250;-1.118;2023-03-31T15:34:49;4.13;;;2.28;;
70667;SDS011;58242;51.250;-1.118;2023-03-31T15:37:15;6.65;;;2.47;;
70667;SDS011;58242;51.250;-1.118;2023-03-31T15:39:45;4.05;;;2.58;;
70667;SDS011;58242;51.250;-1.118;2023-03-31T15:42:12;2.58;;;2.20;;
70667;SDS011;58242;51.250;-1.118;2023-03-31T15:44:44;4.82;;;2.67;;
70667;SDS011;58242;51.250;-1.118;2023-03-31T15:47:16;4.57;;;2.80;;
70667;SDS011;58242;51.250;-1.118;2023-03-31T15:49:47;3.92;;;2.65;;
70667;SDS011;58242;51.250;-1.118;2023-03-31T15:52:22;5.47;;;3.75;;
70667;SDS011;58242;51.250;-1.118;2023-03-31T15:54:51;5.75;;;2.90;;
70667;SDS011;58242;51.250;-1.118;2023-03-31T15:57:17;3.53;;;2.80;;
70667;SDS011;58242;51.250;-1.118;2023-03-31T15:59:44;2.58;;;2.38;;
70667;SDS011;58242;51.250;-1.118;2023-03-31T16:02:14;3.97;;;3.25;;
70667;SDS011;58242;51.250;-1.118;2023-03-31T16:04:43;6.22;;;3.45;;
70667;SDS011;58242;51.250;-1.118;2023-03-31T16:07:17;5.75;;;3.28;;
70667;SDS011;58242;51.250;-1.118;2023-03-31T16:09:54;3.92;;;3.20;;
70667;SDS011;58242;51.250;-1.118;2023-03-31T16:15:04;3.58;;;2.70;;
70667;SDS011;58242;51.250;-1.118;2023-03-31T16:17:54;2.28;;;2.15;;
70667;SDS011;58242;51.250;-1.118;2023-03-31T16:20:22;2.47;;;2.27;;
70667;SDS011;58242;51.250;-1.118;2023-03-31T16:22:51;2.53;;;2.33;;
70667;SDS011;58242;51.250;-1.118;2023-03-31T16:25:20;4.32;;;2.30;;
70667;SDS011;58242;51.250;-1.118;2023-03-31T16:30:16;2.85;;;2.65;;
70667;SDS011;58242;51.250;-1.118;2023-03-31T16:35:37;3.42;;;2.60;;
70667;SDS011;58242;51.250;-1.118;2023-03-31T16:38:07;3.83;;;2.67;;
70667;SDS011;58242;51.250;-1.118;2023-03-31T16:40:35;3.03;;;2.75;;
70667;SDS011;58242;51.250;-1.118;2023-03-31T16:43:06;3.10;;;2.80;;
70667;SDS011;58242;51.250;-1.118;2023-03-31T16:45:32;3.10;;;2.50;;
70667;SDS011;58242;51.250;-1.118;2023-03-31T16:47:57;2.85;;;2.65;;
70667;SDS011;58242;51.250;-1.118;2023-03-31T16:50:22;2.30;;;2.10;;
70667;SDS011;58242;51.250;-1.118;2023-03-31T16:52:48;2.40;;;2.30;;
70667;SDS011;58242;51.250;-1.118;2023-03-31T16:55:14;4.28;;;3.10;;
70667;SDS011;58242;51.250;-1.118;2023-03-31T16:57:39;4.38;;;3.78;;
70667;SDS011;58242;51.250;-1.118;2023-03-31T17:00:05;4.95;;;2.78;;
70667;SDS011;58242;51.250;-1.118;2023-03-31T17:02:31;2.38;;;2.17;;
70667;SDS011;58242;51.250;-1.118;2023-03-31T17:04:56;3.65;;;3.38;;
70667;SDS011;58242;51.250;-1.118;2023-03-31T17:07:22;3.00;;;2.90;;
70667;SDS011;58242;51.250;-1.118;2023-03-31T17:09:47;3.20;;;3.00;;
70667;SDS011;58242;51.250;-1.118;2023-03-31T17:12:12;4.00;;;2.78;;
70667;SDS011;58242;51.250;-1.118;2023-03-31T17:14:38;3.33;;;3.03;;
70667;SDS011;58242;51.250;-1.118;2023-03-31T17:17:03;2.50;;;2.30;;
70667;SDS011;58242;51.250;-1.118;2023-03-31T17:19:28;3.30;;;3.00;;
70667;SDS011;58242;51.250;-1.118;2023-03-31T17:21:54;3.60;;;3.35;;
70667;SDS011;58242;51.250;-1.118;2023-03-31T17:24:20;3.20;;;2.80;;
70667;SDS011;58242;51.250;-1.118;2023-03-31T17:26:46;3.58;;;3.30;;
70667;SDS011;58242;51.250;-1.118;2023-03-31T17:29:11;3.35;;;3.15;;
70667;SDS011;58242;51.250;-1.118;2023-03-31T17:31:36;3.80;;;3.03;;
70667;SDS011;58242;51.250;-1.118;2023-03-31T17:34:02;2.90;;;2.70;;
70667;SDS011;58242;51.250;-1.118;2023-03-31T17:36:27;7.70;;;3.35;;
70667;SDS011;58242;51.250;-1.118;2023-03-31T17:38:52;3.47;;;2.90;;
70667;SDS011;58242;51.250;-1.118;2023-03-31T17:41:19;3.30;;;3.20;;
70667;SDS011;58242;51.250;-1.118;2023-03-31T17:43:45;3.00;;;2.80;;
70667;SDS011;58242;51.250;-1.118;2023-03-31T17:46:13;3.40;;;3.00;;